Terminal Aerodrome Forecast
Issued by NWS

Home | Current Version | Previous Version | Text Only | Print | Product List | Glossary On
Versions: 1 2 3 4 5 6 7 8 9 10 11 12 13 14 15
000
FTUS42 KTBW 141100
TAFLAL
TAF
KLAL 141139Z 1412/1512 VRB03KT P6SM FEW015 SCT250
     FM141400 19004KT P6SM SCT025 SCT250
      TEMPO 1414/1417 BKN025
     FM141700 24005KT P6SM VCTS BKN035CB
     FM150100 19004KT P6SM FEW040 SCT130 BKN250
     FM150400 VRB03KT P6SM SCT250=

USA.gov is the U.S. government's official web portal to all federal, state and local government web resources and services.